Time;durP1;ratioP1;P1;durP2;ratioP2;P2;SDS_P1;SDS_P2;PMS_P1;PMS_P2;Temp;Humidity;BMP_temperature;BMP_pressure;BME280_temperature;BME280_humidity;BME280_pressure;Samples;Min_cycle;Max_cycle;Signal;HPM_P1;HPM_P2
2023/03/26 00:00:52;;;;;;;;;;;;;;;10.91;49.90;99898.84;5353678;32;34580;-64
2023/03/26 00:03:56;;;;;;;;;;;;;;;11.08;49.41;99900.66;5360606;32;35635;-76
2023/03/26 00:06:58;;;;;;;;;;;;;;;11.01;49.43;99901.87;5341105;32;35006;-64
2023/03/26 00:10:00;;;;;;;;;;;;;;;10.83;49.25;99893.09;5366326;32;35617;-75
2023/03/26 00:13:03;;;;;;;;;;;;;;;10.96;49.08;99888.97;5359384;32;35268;-76
2023/03/26 00:16:05;;;;;;;;;;;;;;;10.51;49.67;99889.38;5355827;32;35119;-64
2023/03/26 00:19:07;;;;;;;;;;;;;;;11.06;48.91;99889.34;5371258;32;34771;-65
2023/03/26 00:22:12;;;;;;;;;;;;;;;11.18;48.47;99894.00;5354594;32;44331;-63
2023/03/26 00:25:14;;;;;;;;;;;;;;;10.97;48.96;99895.06;5375643;32;35380;-66
2023/03/26 00:28:20;;;;;;;;;;;;;;;10.93;49.37;99888.25;5355654;32;34486;-65
2023/03/26 00:31:22;;;;;;;;;;;;;;;11.15;48.79;99890.69;5363729;32;34612;-64
2023/03/26 00:34:25;;;;;;;;;;;;;;;11.13;48.17;99874.97;5363745;32;35374;-76
2023/03/26 00:37:27;;;;;;;;;;;;;;;10.60;49.58;99894.19;5353891;32;35044;-77
2023/03/26 00:40:30;;;;;;;;;;;;;;;11.29;48.10;99896.13;5370216;32;34898;-64
2023/03/26 00:43:33;;;;;;;;;;;;;;;10.78;48.90;99895.94;5350164;32;34995;-76
2023/03/26 00:46:35;;;;;;;;;;;;;;;10.93;48.50;99894.34;5369313;32;35141;-77
2023/03/26 00:49:38;;;;;;;;;;;;;;;11.03;48.58;99876.38;5355777;32;34880;-76
2023/03/26 00:52:41;;;;;;;;;;;;;;;11.30;47.76;99872.34;5362006;32;46103;-63
2023/03/26 00:55:44;;;;;;;;;;;;;;;11.88;46.58;99872.03;5367668;32;35856;-78
2023/03/26 00:58:48;;;;;;;;;;;;;;;11.02;48.50;99874.66;5354544;32;34845;-76
2023/03/26 01:01:53;;;;;;;;;;;;;;;11.62;46.86;99856.72;5371568;32;36336;-64
2023/03/26 01:04:56;;;;;;;;;;;;;;;11.29;47.46;99854.03;5338938;32;35857;-64
2023/03/26 01:08:13;;;;;;;;;;;;;;;11.72;46.76;99851.81;5367849;32;36550;-75
2023/03/26 01:11:15;;;;;;;;;;;;;;;11.06;47.96;99863.06;5358249;32;46410;-77
2023/03/26 01:14:19;;;;;;;;;;;;;;;11.15;48.03;99861.78;5356718;32;34864;-64
2023/03/26 01:17:21;;;;;;;;;;;;;;;10.92;48.72;99862.88;5375536;32;36105;-72
2023/03/26 01:20:25;;;;;;;;;;;;;;;11.80;46.51;99858.41;5356340;32;35337;-64
2023/03/26 01:23:29;;;;;;;;;;;;;;;11.34;47.81;99866.03;5372884;32;34717;-72
2023/03/26 01:26:35;;;;;;;;;;;;;;;11.44;47.35;99858.50;5352352;32;34947;-65
2023/03/26 01:29:38;;;;;;;;;;;;;;;10.92;48.79;99863.72;5364992;32;35386;-65
2023/03/26 01:32:46;;;;;;;;;;;;;;;10.82;48.63;99871.22;5362275;32;45089;-65
2023/03/26 01:35:51;;;;;;;;;;;;;;;11.37;47.63;99868.50;5354521;32;34534;-75
2023/03/26 01:39:26;;;;;;;;;;;;;;;11.37;47.30;99862.38;5371165;32;34939;-64
2023/03/26 01:42:46;;;;;;;;;;;;;;;11.38;47.21;99854.41;5316966;32;35042;-75
2023/03/26 01:45:48;;;;;;;;;;;;;;;11.89;45.86;99868.47;5357290;32;34669;-63
2023/03/26 01:48:50;;;;;;;;;;;;;;;11.30;47.10;99872.34;5367022;32;35764;-64
2023/03/26 01:51:54;;;;;;;;;;;;;;;11.13;47.51;99877.59;5352392;32;35188;-75
2023/03/26 01:54:56;;;;;;;;;;;;;;;11.09;47.47;99871.66;5373217;32;34850;-77
2023/03/26 01:58:08;;;;;;;;;;;;;;;11.21;47.21;99867.56;5354304;32;35195;-66
2023/03/26 02:01:11;;;;;;;;;;;;;;;11.08;47.63;99862.06;5366606;32;44613;-65
2023/03/26 02:04:36;;;;;;;;;;;;;;;10.64;48.81;99880.00;5344967;32;35488;-64
2023/03/26 02:07:38;;;;;;;;;;;;;;;10.64;48.74;99885.25;5342755;32;46931;-64
2023/03/26 02:10:41;;;;;;;;;;;;;;;11.00;47.71;99863.34;5372693;32;35509;-77
2023/03/26 02:13:43;;;;;;;;;;;;;;;10.35;49.96;99876.09;5352771;32;35110;-77
2023/03/26 02:16:46;;;;;;;;;;;;;;;10.82;48.94;99887.00;5367585;32;34359;-65
2023/03/26 02:19:48;;;;;;;;;;;;;;;10.92;48.54;99899.69;5355664;32;36157;-76
2023/03/26 02:22:50;;;;;;;;;;;;;;;10.96;48.64;99896.84;5357252;32;35044;-64
2023/03/26 02:25:52;;;;;;;;;;;;;;;10.33;50.03;99870.06;5367944;32;35885;-65
2023/03/26 02:28:55;;;;;;;;;;;;;;;10.41;50.06;99890.72;5352424;32;36411;-65
2023/03/26 02:31:57;;;;;;;;;;;;;;;10.56;49.95;99893.50;5371006;32;35464;-63
2023/03/26 02:34:59;;;;;;;;;;;;;;;10.40;50.52;99891.63;5354007;32;35162;-64
2023/03/26 02:38:01;;;;;;;;;;;;;;;10.40;50.40;99886.37;5369403;32;35794;-64
2023/03/26 02:41:03;;;;;;;;;;;;;;;10.46;50.53;99881.69;5354247;32;35754;-64
2023/03/26 02:44:05;;;;;;;;;;;;;;;10.52;50.15;99875.31;5352625;32;34871;-75
2023/03/26 02:47:07;;;;;;;;;;;;;;;9.99;51.65;99875.97;5367394;32;35893;-77
2023/03/26 02:50:10;;;;;;;;;;;;;;;10.34;50.96;99873.53;5354006;32;46697;-77
2023/03/26 02:53:12;;;;;;;;;;;;;;;10.16;51.55;99870.78;5371426;32;35551;-63
2023/03/26 02:56:14;;;;;;;;;;;;;;;9.96;51.82;99868.22;5352866;32;35137;-64
2023/03/26 02:59:16;;;;;;;;;;;;;;;10.57;50.21;99850.53;5369822;32;36822;-76
2023/03/26 03:02:18;;;;;;;;;;;;;;;10.32;50.75;99859.62;5354653;32;36771;-65
2023/03/26 03:05:25;;;;;;;;;;;;;;;10.61;50.09;99869.59;5336418;32;34588;-65
2023/03/26 03:08:28;;;;;;;;;;;;;;;10.75;49.67;99869.78;5370650;32;36308;-76
2023/03/26 03:11:30;;;;;;;;;;;;;;;10.97;49.04;99874.03;5352973;32;34981;-63
2023/03/26 03:14:32;;;;;;;;;;;;;;;10.52;50.39;99873.53;5370022;32;35530;-77
2023/03/26 03:17:34;;;;;;;;;;;;;;;10.37;50.94;99874.25;5353733;32;35436;-76
2023/03/26 03:20:36;;;;;;;;;;;;;;;11.33;48.54;99866.97;5367721;32;34988;-76
2023/03/26 03:23:38;;;;;;;;;;;;;;;11.27;48.59;99869.03;5356186;32;45209;-76
2023/03/26 03:26:41;;;;;;;;;;;;;;;11.08;49.00;99869.97;5353429;32;35539;-76
2023/03/26 03:29:43;;;;;;;;;;;;;;;11.52;47.68;99876.53;5371499;32;35229;-75
2023/03/26 03:32:45;;;;;;;;;;;;;;;12.13;46.05;99863.69;5352350;32;34692;-77
2023/03/26 03:35:48;;;;;;;;;;;;;;;11.98;46.58;99864.50;5371376;32;35455;-65
2023/03/26 03:38:50;;;;;;;;;;;;;;;11.04;49.25;99872.81;5352962;32;34508;-66
2023/03/26 03:41:52;;;;;;;;;;;;;;;12.18;46.11;99860.81;5362142;32;34691;-65
2023/03/26 03:44:54;;;;;;;;;;;;;;;12.28;45.81;99850.59;5355102;32;35657;-73
2023/03/26 03:47:56;;;;;;;;;;;;;;;12.14;45.73;99864.53;5352815;32;35097;-64
2023/03/26 03:50:58;;;;;;;;;;;;;;;11.50;47.28;99870.50;5373224;32;34893;-75
2023/03/26 03:54:00;;;;;;;;;;;;;;;11.83;46.65;99891.63;5353167;32;34760;-76
2023/03/26 03:57:02;;;;;;;;;;;;;;;10.73;49.91;99889.19;5373431;32;34467;-64
2023/03/26 04:00:07;;;;;;;;;;;;;;;11.21;48.96;99887.78;5356293;32;35557;-64
2023/03/26 04:03:13;;;;;;;;;;;;;;;12.30;45.81;99890.88;5370006;32;44775;-76
2023/03/26 04:06:17;;;;;;;;;;;;;;;12.44;44.80;99883.97;5340433;32;34866;-73
2023/03/26 04:09:19;;;;;;;;;;;;;;;12.44;44.81;99885.75;5355646;32;35611;-76
2023/03/26 04:12:21;;;;;;;;;;;;;;;12.35;44.87;99889.72;5372104;32;34907;-65
2023/03/26 04:15:23;;;;;;;;;;;;;;;12.30;45.12;99902.31;5355542;32;34666;-76
2023/03/26 04:18:26;;;;;;;;;;;;;;;11.27;47.79;99897.97;5372597;32;34975;-77
2023/03/26 04:21:32;;;;;;;;;;;;;;;11.70;46.63;99896.66;5355588;32;35212;-63
2023/03/26 04:24:38;;;;;;;;;;;;;;;11.23;47.94;99885.91;5361661;32;34954;-65
2023/03/26 04:27:42;;;;;;;;;;;;;;;10.50;49.79;99895.56;5366978;32;47114;-77
2023/03/26 04:30:44;;;;;;;;;;;;;;;11.66;46.90;99885.44;5354535;32;35670;-65
2023/03/26 04:33:46;;;;;;;;;;;;;;;10.54;49.78;99883.97;5373931;32;34799;-63
2023/03/26 04:36:47;;;;;;;;;;;;;;;10.90;49.21;99891.03;5352945;32;34881;-78
2023/03/26 04:39:49;;;;;;;;;;;;;;;10.83;49.34;99893.97;5370546;32;35150;-73
2023/03/26 04:42:53;;;;;;;;;;;;;;;10.70;49.48;99871.81;5353728;32;34965;-66
2023/03/26 04:45:55;;;;;;;;;;;;;;;11.15;48.30;99886.28;5357716;32;35756;-76
2023/03/26 04:48:57;;;;;;;;;;;;;;;11.67;47.17;99894.19;5368937;32;35935;-76
2023/03/26 04:51:59;;;;;;;;;;;;;;;11.22;48.32;99902.63;5353810;32;34850;-64
2023/03/26 04:55:01;;;;;;;;;;;;;;;10.84;49.08;99902.69;5373911;32;36035;-64
2023/03/26 04:58:04;;;;;;;;;;;;;;;10.40;50.34;99897.75;5355217;32;35125;-64
2023/03/26 05:01:09;;;;;;;;;;;;;;;10.85;49.54;99907.03;5371037;32;35318;-77
2023/03/26 05:04:12;;;;;;;;;;;;;;;11.14;48.98;99905.59;5343559;32;45219;-76
2023/03/26 05:07:24;;;;;;;;;;;;;;;10.84;49.80;99903.53;5347788;32;35074;-64
2023/03/26 05:10:26;;;;;;;;;;;;;;;10.98;49.71;99896.78;5372173;32;34728;-77
2023/03/26 05:13:28;;;;;;;;;;;;;;;10.51;50.71;99894.63;5352737;32;34882;-64
2023/03/26 05:16:30;;;;;;;;;;;;;;;11.30;48.84;99868.88;5373073;32;35657;-64
2023/03/26 05:19:32;;;;;;;;;;;;;;;10.99;49.73;99890.56;5355581;32;34875;-65
2023/03/26 05:22:34;;;;;;;;;;;;;;;11.19;49.39;99884.34;5369506;32;35672;-75
2023/03/26 05:25:39;;;;;;;;;;;;;;;11.43;48.91;99885.75;5358756;32;44780;-63
2023/03/26 05:28:41;;;;;;;;;;;;;;;11.47;48.61;99894.34;5354680;32;34440;-76
2023/03/26 05:31:43;;;;;;;;;;;;;;;11.72;48.04;99891.28;5371157;32;35433;-64
2023/03/26 05:34:45;;;;;;;;;;;;;;;12.22;46.85;99877.28;5354651;32;35367;-75
2023/03/26 05:37:48;;;;;;;;;;;;;;;12.33;45.45;99881.03;5370804;32;34807;-64
2023/03/26 05:40:50;;;;;;;;;;;;;;;13.63;42.61;99872.81;5353168;32;35608;-66
2023/03/26 05:43:52;;;;;;;;;;;;;;;14.87;39.50;99871.22;5363564;32;34910;-64
2023/03/26 05:46:54;;;;;;;;;;;;;;;15.20;38.60;99867.31;5358878;32;36498;-65
2023/03/26 05:49:56;;;;;;;;;;;;;;;14.76;38.96;99877.22;5351869;32;34924;-63
2023/03/26 05:52:57;;;;;;;;;;;;;;;15.09;37.45;99875.97;5374036;32;35177;-76
2023/03/26 05:56:00;;;;;;;;;;;;;;;16.33;35.61;99875.47;5353655;32;35956;-76
2023/03/26 05:59:02;;;;;;;;;;;;;;;16.30;35.43;99876.53;5371776;32;35406;-63
2023/03/26 06:02:05;;;;;;;;;;;;;;;17.80;33.32;99868.97;5354598;32;35144;-76
2023/03/26 06:05:08;;;;;;;;;;;;;;;19.09;31.12;99872.03;5348169;32;35144;-64
2023/03/26 06:08:10;;;;;;;;;;;;;;;17.04;34.49;99864.09;5361042;32;46669;-65
2023/03/26 06:11:12;;;;;;;;;;;;;;;17.74;33.75;99872.09;5353462;32;35531;-65
2023/03/26 06:14:14;;;;;;;;;;;;;;;18.57;32.20;99852.28;5370573;32;36809;-64
2023/03/26 06:17:16;;;;;;;;;;;;;;;17.64;32.54;99856.94;5354472;32;34821;-65
2023/03/26 06:20:18;;;;;;;;;;;;;;;16.43;34.56;99863.25;5372313;32;34204;-76
2023/03/26 06:23:21;;;;;;;;;;;;;;;17.85;32.03;99852.69;5353733;32;34858;-73
2023/03/26 06:26:24;;;;;;;;;;;;;;;19.30;30.28;99851.56;5363935;32;34789;-78
2023/03/26 06:29:26;;;;;;;;;;;;;;;18.53;31.04;99858.81;5363158;32;34468;-65
2023/03/26 06:32:28;;;;;;;;;;;;;;;20.02;28.52;99840.13;5352768;32;35826;-62
2023/03/26 06:35:30;;;;;;;;;;;;;;;20.14;28.35;99840.87;5370154;32;35354;-66
2023/03/26 06:38:32;;;;;;;;;;;;;;;19.94;28.86;99853.28;5351980;32;35071;-78
2023/03/26 06:41:34;;;;;;;;;;;;;;;19.85;29.22;99843.44;5368279;32;34852;-77
2023/03/26 06:44:36;;;;;;;;;;;;;;;20.73;27.40;99850.78;5351598;32;34331;-78
2023/03/26 06:47:38;;;;;;;;;;;;;;;21.27;26.67;99844.91;5360872;32;36159;-65
2023/03/26 06:50:40;;;;;;;;;;;;;;;20.40;28.00;99843.91;5363919;32;35075;-66
2023/03/26 06:53:42;;;;;;;;;;;;;;;18.40;30.67;99854.47;5353379;32;34868;-77
2023/03/26 06:56:44;;;;;;;;;;;;;;;18.75;29.78;99848.16;5372306;32;36308;-65
2023/03/26 06:59:46;;;;;;;;;;;;;;;17.93;31.57;99860.91;5354764;32;34870;-66
2023/03/26 07:02:48;;;;;;;;;;;;;;;16.12;34.40;99861.91;5370178;32;35423;-64
2023/03/26 07:05:50;;;;;;;;;;;;;;;17.40;32.27;99851.72;5335124;32;34658;-71
2023/03/26 07:08:54;;;;;;;;;;;;;;;17.86;32.01;99857.88;5362217;32;34831;-77
2023/03/26 07:11:56;;;;;;;;;;;;;;;17.36;32.43;99851.06;5364337;32;34809;-65
2023/03/26 07:14:58;;;;;;;;;;;;;;;18.01;31.54;99847.00;5352951;32;34568;-77
2023/03/26 07:18:01;;;;;;;;;;;;;;;18.59;30.84;99851.19;5368994;32;36196;-65
2023/03/26 07:21:03;;;;;;;;;;;;;;;18.57;30.15;99838.97;5355591;32;36032;-64
2023/03/26 07:24:05;;;;;;;;;;;;;;;20.06;28.14;99832.72;5372114;32;35401;-64
2023/03/26 07:27:27;;;;;;;;;;;;;;;19.06;29.27;99834.97;5357205;32;35433;-77
2023/03/26 07:30:45;;;;;;;;;;;;;;;20.04;28.31;99830.19;5325191;32;34854;-78
2023/03/26 07:33:56;;;;;;;;;;;;;;;19.17;29.08;99848.25;5368745;32;45120;-65
2023/03/26 07:37:01;;;;;;;;;;;;;;;19.76;28.66;99850.38;5355596;32;34679;-78
2023/03/26 07:40:09;;;;;;;;;;;;;;;19.11;29.12;99856.75;5370984;32;34594;-65
2023/03/26 07:43:17;;;;;;;;;;;;;;;21.17;26.32;99833.37;5353932;32;44882;-77
2023/03/26 07:46:22;;;;;;;;;;;;;;;22.34;24.98;99860.75;5354314;32;34983;-78
2023/03/26 07:49:25;;;;;;;;;;;;;;;20.83;26.94;99855.16;5372668;32;34726;-78
2023/03/26 07:52:28;;;;;;;;;;;;;;;22.40;25.45;99846.78;5354568;32;34649;-66
2023/03/26 07:55:30;;;;;;;;;;;;;;;23.36;24.47;99847.13;5373249;32;35436;-66
2023/03/26 07:58:41;;;;;;;;;;;;;;;21.83;26.24;99848.66;5355228;32;35324;-77
2023/03/26 08:02:12;;;;;;;;;;;;;;;20.45;27.79;99853.25;5366474;32;45253;-78
2023/03/26 08:05:19;;;;;;;;;;;;;;;24.10;24.08;99845.81;5298023;32;44770;-80
2023/03/26 08:08:42;;;;;;;;;;;;;;;23.54;24.55;99849.78;5354105;32;34833;-65
2023/03/26 08:11:47;;;;;;;;;;;;;;;21.77;26.62;99849.25;5354149;32;46030;-78
2023/03/26 08:14:52;;;;;;;;;;;;;;;19.57;29.69;99868.88;5356353;32;35025;-77
2023/03/26 08:17:53;;;;;;;;;;;;;;;17.62;31.02;99865.03;5357319;32;35170;-64
2023/03/26 08:21:00;;;;;;;;;;;;;;;18.56;29.64;99846.13;5368360;32;35062;-67
2023/03/26 08:24:19;;;;;;;;;;;;;;;17.11;31.80;99865.34;5353485;32;34985;-64
2023/03/26 08:27:22;;;;;;;;;;;;;;;17.04;32.04;99856.16;5370336;32;34903;-73
2023/03/26 08:30:24;;;;;;;;;;;;;;;17.64;30.79;99863.09;5354417;32;35059;-65
2023/03/26 08:33:26;;;;;;;;;;;;;;;16.13;33.46;99858.31;5365805;32;35294;-65
2023/03/26 08:36:28;;;;;;;;;;;;;;;17.23;33.11;99858.28;5346434;32;35092;-65
2023/03/26 08:39:30;;;;;;;;;;;;;;;17.97;32.46;99853.50;5353097;32;34955;-76
2023/03/26 08:42:35;;;;;;;;;;;;;;;17.62;32.93;99857.06;5368942;32;36176;-76
2023/03/26 08:45:55;;;;;;;;;;;;;;;17.48;33.21;99858.13;5352786;32;35079;-77
2023/03/26 08:49:16;;;;;;;;;;;;;;;17.36;33.92;99856.37;5370941;32;35502;-64
2023/03/26 08:52:23;;;;;;;;;;;;;;;17.29;34.09;99856.00;5358931;32;34906;-65
2023/03/26 08:55:40;;;;;;;;;;;;;;;17.92;32.92;99850.38;5352830;32;35161;-77
2023/03/26 08:59:00;;;;;;;;;;;;;;;17.75;33.41;99841.91;5372592;32;45051;-77
2023/03/26 09:02:05;;;;;;;;;;;;;;;17.75;33.05;99841.91;5354468;32;35640;-78
2023/03/26 09:05:18;;;;;;;;;;;;;;;17.97;32.64;99840.22;5350607;32;34734;-65
2023/03/26 09:08:39;;;;;;;;;;;;;;;18.39;32.14;99838.63;5359530;32;35424;-66
2023/03/26 09:11:55;;;;;;;;;;;;;;;19.15;30.88;99826.22;5354300;32;35027;-76
2023/03/26 09:14:57;;;;;;;;;;;;;;;20.45;28.64;99821.22;5372878;32;34954;-65
2023/03/26 09:18:05;;;;;;;;;;;;;;;19.73;29.36;99818.66;5355173;32;35552;-65
2023/03/26 09:21:13;;;;;;;;;;;;;;;20.09;29.03;99819.09;5365512;32;35144;-66
2023/03/26 09:24:26;;;;;;;;;;;;;;;21.15;27.33;99813.13;5362190;32;44871;-76
2023/03/26 09:27:28;;;;;;;;;;;;;;;21.23;26.91;99814.09;5351874;32;34935;-74
2023/03/26 09:30:30;;;;;;;;;;;;;;;20.58;27.45;99807.62;5372530;32;34752;-66
2023/03/26 09:33:52;;;;;;;;;;;;;;;20.07;28.01;99816.56;5353121;32;35347;-77
2023/03/26 09:36:56;;;;;;;;;;;;;;;19.19;29.30;99817.00;5366577;32;37173;-66
2023/03/26 09:40:13;;;;;;;;;;;;;;;19.12;29.54;99815.81;5358692;32;35105;-65
2023/03/26 09:43:15;;;;;;;;;;;;;;;19.07;29.45;99800.25;5349603;32;45352;-74
2023/03/26 09:46:19;;;;;;;;;;;;;;;20.10;28.00;99794.13;5368743;32;34851;-64
2023/03/26 09:49:30;;;;;;;;;;;;;;;20.68;27.03;99791.62;5355108;32;35806;-62
2023/03/26 09:52:35;;;;;;;;;;;;;;;20.96;26.49;99788.13;5371866;32;34766;-74
2023/03/26 09:55:42;;;;;;;;;;;;;;;21.33;26.11;99790.09;5357256;32;35115;-75
2023/03/26 09:58:47;;;;;;;;;;;;;;;23.08;24.05;99768.66;5343543;32;44921;-74
2023/03/26 10:01:55;;;;;;;;;;;;;;;23.77;22.23;99765.97;5370738;32;34390;-62
2023/03/26 10:05:18;;;;;;;;;;;;;;;24.90;21.21;99754.91;5337881;32;34603;-65
2023/03/26 10:08:32;;;;;;;;;;;;;;;25.01;21.19;99759.94;5369361;32;34863;-65
2023/03/26 10:11:37;;;;;;;;;;;;;;;25.21;20.78;99739.81;5355308;32;35094;-75
2023/03/26 10:14:39;;;;;;;;;;;;;;;24.20;21.36;99729.22;5356353;32;46740;-63
2023/03/26 10:17:41;;;;;;;;;;;;;;;24.80;20.68;99728.19;5370952;32;35131;-72
2023/03/26 10:20:43;;;;;;;;;;;;;;;22.94;22.64;99724.50;5353861;32;35507;-76
2023/03/26 10:23:55;;;;;;;;;;;;;;;22.45;23.40;99734.72;5371892;32;34992;-74
2023/03/26 10:27:07;;;;;;;;;;;;;;;20.84;25.54;99727.81;5354087;32;35652;-64
2023/03/26 10:30:24;;;;;;;;;;;;;;;20.74;25.54;99730.50;5364157;32;44983;-64
2023/03/26 10:33:26;;;;;;;;;;;;;;;20.21;27.03;99740.63;5365548;32;35546;-64
2023/03/26 10:36:33;;;;;;;;;;;;;;;18.97;29.89;99755.84;5353855;32;35439;-72
2023/03/26 10:39:54;;;;;;;;;;;;;;;17.48;34.93;99762.47;5369729;32;35036;-64
2023/03/26 10:43:19;;;;;;;;;;;;;;;16.68;37.07;99766.78;5352373;32;35776;-73
2023/03/26 10:46:28;;;;;;;;;;;;;;;15.70;41.58;99764.09;5356045;32;35545;-64
2023/03/26 10:49:33;;;;;;;;;;;;;;;16.66;40.26;99748.34;5368895;32;36753;-63
2023/03/26 10:52:35;;;;;;;;;;;;;;;17.55;38.35;99730.97;5351371;32;34271;-74
2023/03/26 10:55:38;;;;;;;;;;;;;;;19.86;34.42;99733.09;5370521;32;35443;-62
2023/03/26 10:58:40;;;;;;;;;;;;;;;20.96;31.01;99726.66;5351760;32;45170;-74
2023/03/26 11:01:50;;;;;;;;;;;;;;;20.89;30.05;99716.72;5362591;32;34525;-73
2023/03/26 11:04:52;;;;;;;;;;;;;;;19.82;31.55;99697.84;5341674;32;35114;-64
2023/03/26 11:08:14;;;;;;;;;;;;;;;20.78;29.45;99697.16;5349032;32;35165;-63
2023/03/26 11:11:16;;;;;;;;;;;;;;;20.85;29.37;99693.94;5370106;32;46951;-63
2023/03/26 11:14:36;;;;;;;;;;;;;;;20.10;29.84;99674.09;5353764;32;34983;-64
2023/03/26 11:17:54;;;;;;;;;;;;;;;19.43;31.15;99675.50;5366098;32;44313;-63
2023/03/26 11:20:59;;;;;;;;;;;;;;;17.72;34.36;99680.03;5362410;32;35830;-74
2023/03/26 11:24:21;;;;;;;;;;;;;;;19.16;34.12;99666.28;5353304;32;36370;-63
2023/03/26 11:27:52;;;;;;;;;;;;;;;18.77;34.48;99665.19;5370179;32;34603;-73
2023/03/26 11:30:57;;;;;;;;;;;;;;;20.08;32.76;99641.34;5341866;32;37175;-63
2023/03/26 11:34:04;;;;;;;;;;;;;;;20.50;31.71;99650.81;5353384;32;34957;-73
2023/03/26 11:37:11;;;;;;;;;;;;;;;19.13;32.52;99637.25;5366373;32;35098;-63
2023/03/26 11:40:14;;;;;;;;;;;;;;;18.75;33.55;99643.19;5350645;32;46935;-75
2023/03/26 11:43:17;;;;;;;;;;;;;;;19.01;32.75;99622.34;5352243;32;33409;-75
2023/03/26 11:46:21;;;;;;;;;;;;;;;19.48;32.38;99626.16;5350457;32;34396;-74
2023/03/26 11:49:23;;;;;;;;;;;;;;;20.53;30.53;99618.50;5367968;32;34844;-64
2023/03/26 11:52:25;;;;;;;;;;;;;;;21.87;28.22;99611.97;5355318;32;34928;-75
2023/03/26 11:55:27;;;;;;;;;;;;;;;22.92;26.77;99596.00;5338926;32;34814;-63
2023/03/26 11:58:32;;;;;;;;;;;;;;;25.29;23.71;99586.50;5367305;32;35092;-75
2023/03/26 12:01:50;;;;;;;;;;;;;;;24.28;24.58;99586.09;5352682;32;34927;-63
2023/03/26 12:04:54;;;;;;;;;;;;;;;25.29;22.80;99570.34;5350950;32;35003;-75
2023/03/26 12:08:00;;;;;;;;;;;;;;;26.73;20.90;99561.69;5349447;32;34828;-64
2023/03/26 12:11:03;;;;;;;;;;;;;;;27.75;19.58;99543.75;5361393;32;34951;-74
2023/03/26 12:14:05;;;;;;;;;;;;;;;24.65;22.91;99531.03;5366165;32;34260;-75
2023/03/26 12:17:10;;;;;;;;;;;;;;;24.09;23.63;99543.47;5353146;32;34287;-63
2023/03/26 12:20:38;;;;;;;;;;;;;;;22.26;26.36;99536.78;5371855;32;44818;-73
2023/03/26 12:23:43;;;;;;;;;;;;;;;20.66;28.70;99538.09;5349217;32;45886;-74
2023/03/26 12:26:45;;;;;;;;;;;;;;;24.45;23.44;99509.09;5368870;32;34947;-74
2023/03/26 12:30:06;;;;;;;;;;;;;;;23.04;24.90;99518.88;5360499;32;35545;-63
2023/03/26 12:33:15;;;;;;;;;;;;;;;20.47;28.18;99514.97;5354383;32;35562;-65
2023/03/26 12:36:23;;;;;;;;;;;;;;;22.67;25.73;99509.31;5371168;32;44749;-77
2023/03/26 12:39:25;;;;;;;;;;;;;;;25.86;21.02;99489.34;5354900;32;34079;-73
2023/03/26 12:42:50;;;;;;;;;;;;;;;25.81;20.90;99478.28;5357506;32;45507;-74
2023/03/26 12:46:26;;;;;;;;;;;;;;;27.48;18.90;99458.94;5368523;32;45678;-73
2023/03/26 12:49:48;;;;;;;;;;;;;;;27.00;19.05;99458.56;5342776;32;47743;-74
2023/03/26 12:53:01;;;;;;;;;;;;;;;26.32;19.12;99456.97;5368410;32;35652;-77
2023/03/26 12:56:09;;;;;;;;;;;;;;;26.07;19.19;99456.34;5347026;32;34975;-74
2023/03/26 12:59:23;;;;;;;;;;;;;;;25.28;20.90;99453.03;5354012;32;47220;-63
2023/03/26 13:02:43;;;;;;;;;;;;;;;24.58;22.19;99455.66;5371604;32;35670;-65
2023/03/26 13:06:01;;;;;;;;;;;;;;;26.15;18.53;99445.53;5333562;32;44522;-76
2023/03/26 13:09:06;;;;;;;;;;;;;;;24.06;19.63;99448.03;5369012;32;35148;-64
2023/03/26 13:12:27;;;;;;;;;;;;;;;23.08;20.63;99442.53;5353986;32;35391;-74
2023/03/26 13:15:36;;;;;;;;;;;;;;;22.96;20.92;99443.81;5355729;32;35641;-74
2023/03/26 13:18:44;;;;;;;;;;;;;;;22.04;21.86;99431.88;5370067;32;37471;-64
2023/03/26 13:21:59;;;;;;;;;;;;;;;24.39;19.57;99410.41;5355439;32;34560;-75
2023/03/26 13:25:06;;;;;;;;;;;;;;;25.50;18.19;99407.50;5365218;32;35019;-75
2023/03/26 13:28:17;;;;;;;;;;;;;;;24.23;19.99;99409.41;5362856;32;48030;-74
2023/03/26 13:31:31;;;;;;;;;;;;;;;24.79;19.36;99399.50;5354816;32;37155;-73
2023/03/26 13:34:47;;;;;;;;;;;;;;;23.13;21.05;99400.00;5369807;32;34341;-64
2023/03/26 13:38:07;;;;;;;;;;;;;;;22.41;21.86;99401.34;5354318;32;35093;-75
2023/03/26 13:41:19;;;;;;;;;;;;;;;21.19;24.00;99403.91;5358184;32;45879;-63
2023/03/26 13:44:24;;;;;;;;;;;;;;;21.72;23.10;99379.00;5364428;32;35241;-64
2023/03/26 13:47:27;;;;;;;;;;;;;;;21.26;23.76;99377.41;5354277;32;35247;-63
2023/03/26 13:50:29;;;;;;;;;;;;;;;21.01;22.73;99381.66;5376260;32;36337;-75
2023/03/26 13:53:33;;;;;;;;;;;;;;;20.63;23.64;99382.72;5353832;32;35521;-73
2023/03/26 13:56:37;;;;;;;;;;;;;;;20.92;23.49;99379.88;5366720;32;36416;-74
2023/03/26 13:59:44;;;;;;;;;;;;;;;20.88;23.92;99376.69;5357397;32;45316;-74
2023/03/26 14:02:55;;;;;;;;;;;;;;;20.82;24.16;99369.25;5354706;32;34863;-63
2023/03/26 14:05:58;;;;;;;;;;;;;;;20.59;24.45;99358.13;5349076;32;35460;-74
2023/03/26 14:09:09;;;;;;;;;;;;;;;20.53;24.65;99354.22;5357221;32;34374;-64
2023/03/26 14:12:23;;;;;;;;;;;;;;;20.32;24.76;99350.94;5346350;32;1022157;-65
2023/03/26 14:15:42;;;;;;;;;;;;;;;20.20;24.38;99347.63;5358143;32;35269;-76
2023/03/26 14:18:54;;;;;;;;;;;;;;;20.17;23.97;99336.41;5355229;32;45470;-65
2023/03/26 14:22:12;;;;;;;;;;;;;;;20.38;23.55;99337.00;5371727;32;34176;-64
2023/03/26 14:25:23;;;;;;;;;;;;;;;20.26;23.64;99327.50;5353967;32;44678;-74
2023/03/26 14:28:46;;;;;;;;;;;;;;;19.75;24.27;99336.81;5369019;32;36246;-75
2023/03/26 14:32:07;;;;;;;;;;;;;;;19.68;24.37;99333.88;5359662;32;47463;-64
2023/03/26 14:35:15;;;;;;;;;;;;;;;19.46;24.82;99327.03;5355017;32;44546;-64
2023/03/26 14:38:17;;;;;;;;;;;;;;;19.62;24.24;99312.28;5371075;32;35301;-75
2023/03/26 14:41:42;;;;;;;;;;;;;;;20.16;23.28;99316.06;5352081;32;34845;-75
2023/03/26 14:44:46;;;;;;;;;;;;;;;19.78;23.51;99301.88;5328349;32;44572;-74
2023/03/26 14:47:50;;;;;;;;;;;;;;;19.43;23.78;99305.13;5367306;32;36924;-64
2023/03/26 14:50:53;;;;;;;;;;;;;;;19.19;23.98;99297.56;5354381;32;34510;-75
2023/03/26 14:53:58;;;;;;;;;;;;;;;19.58;22.59;99300.22;5369502;32;35038;-63
2023/03/26 14:57:18;;;;;;;;;;;;;;;19.33;22.21;99299.00;5354025;32;35196;-74
2023/03/26 15:00:39;;;;;;;;;;;;;;;19.14;22.49;99297.19;5367514;32;35305;-75
2023/03/26 15:04:00;;;;;;;;;;;;;;;18.98;22.39;99294.22;5359740;32;44351;-63
2023/03/26 15:07:21;;;;;;;;;;;;;;;19.10;22.36;99272.62;5344531;32;36166;-74
2023/03/26 15:10:22;;;;;;;;;;;;;;;19.29;22.28;99274.44;5368447;32;35007;-63
2023/03/26 15:13:40;;;;;;;;;;;;;;;19.34;22.25;99266.88;5355959;32;36872;-73
2023/03/26 15:16:45;;;;;;;;;;;;;;;18.98;22.58;99256.94;5357124;32;47599;-64
2023/03/26 15:19:50;;;;;;;;;;;;;;;18.91;23.02;99259.34;5369375;32;35144;-64
2023/03/26 15:23:11;;;;;;;;;;;;;;;19.07;23.15;99256.97;5355169;32;34244;-75
2023/03/26 15:26:40;;;;;;;;;;;;;;;19.02;23.49;99253.03;5370201;32;44569;-74
2023/03/26 15:29:45;;;;;;;;;;;;;;;19.00;23.75;99254.97;5356831;32;44984;-75
2023/03/26 15:32:55;;;;;;;;;;;;;;;18.88;24.09;99247.16;5351794;32;35423;-75
2023/03/26 15:36:04;;;;;;;;;;;;;;;18.90;24.27;99237.19;5371021;32;35469;-73
2023/03/26 15:39:15;;;;;;;;;;;;;;;18.67;24.66;99236.63;5354539;32;34831;-64
2023/03/26 15:42:29;;;;;;;;;;;;;;;18.63;25.03;99231.72;5362646;32;44544;-65
2023/03/26 15:45:31;;;;;;;;;;;;;;;18.69;25.07;99233.84;5355738;32;35382;-64
2023/03/26 15:48:44;;;;;;;;;;;;;;;18.90;24.88;99226.53;5358914;32;35370;-64
2023/03/26 15:51:52;;;;;;;;;;;;;;;18.58;25.33;99221.47;5369677;32;44584;-75
2023/03/26 15:55:30;;;;;;;;;;;;;;;18.77;25.50;99226.00;5357139;32;35349;-64
2023/03/26 15:58:50;;;;;;;;;;;;;;;18.26;26.55;99221.72;5278941;32;35049;-75
2023/03/26 16:02:09;;;;;;;;;;;;;;;19.34;25.66;99215.41;5362551;32;35407;-65
2023/03/26 16:05:30;;;;;;;;;;;;;;;18.43;26.64;99208.72;5336440;32;44914;-64
2023/03/26 16:08:35;;;;;;;;;;;;;;;18.72;26.41;99200.78;5372683;32;34760;-74
2023/03/26 16:11:53;;;;;;;;;;;;;;;18.62;26.46;99192.78;5355700;32;45266;-63
2023/03/26 16:15:06;;;;;;;;;;;;;;;18.53;26.72;99180.28;5358442;32;34996;-74